Time;durP1;ratioP1;P1;durP2;ratioP2;P2;SDS_P1;SDS_P2;PMS_P1;PMS_P2;Temp;Humidity;BMP_temperature;BMP_pressure;BME280_temperature;BME280_humidity;BME280_pressure;Samples;Min_cycle;Max_cycle;Signal;HPM_P1;HPM_P2
2023/05/06 00:02:05;;;;;;;;;12.75;11.00;;;;;12.39;72.35;99940.81;5098903;28;8830;-60
2023/05/06 00:04:33;;;;;;;;;11.00;9.50;;;;;12.39;72.30;99948.00;5099510;28;8829;-60
2023/05/06 00:07:01;;;;;;;;;8.00;8.00;;;;;12.39;72.09;99950.66;5099651;28;8806;-60
2023/05/06 00:09:29;;;;;;;;;15.25;12.50;;;;;12.38;72.09;99943.63;5099427;28;8830;-60
2023/05/06 00:11:57;;;;;;;;;10.00;9.00;;;;;12.36;72.07;99941.09;5098511;28;8830;-58
2023/05/06 00:14:24;;;;;;;;;9.50;9.50;;;;;12.36;72.24;99935.75;5098341;28;8844;-60
2023/05/06 00:16:52;;;;;;;;;12.25;9.00;;;;;12.34;72.27;99928.84;5097839;28;8822;-59
2023/05/06 00:19:20;;;;;;;;;7.50;7.00;;;;;12.32;72.16;99928.97;5097885;28;9536;-60
2023/05/06 00:21:48;;;;;;;;;12.25;9.00;;;;;12.29;72.16;99923.91;5097627;28;8854;-60
2023/05/06 00:24:15;;;;;;;;;11.50;9.75;;;;;12.26;72.45;99918.00;5098313;28;8834;-58
2023/05/06 00:26:43;;;;;;;;;14.00;12.50;;;;;12.22;72.86;99913.88;5099164;28;9527;-60
2023/05/06 00:29:10;;;;;;;;;12.50;9.25;;;;;12.18;72.57;99910.66;5098046;28;8868;-59
2023/05/06 00:31:38;;;;;;;;;9.00;7.00;;;;;12.13;72.45;99912.88;5097853;28;8842;-59
2023/05/06 00:34:06;;;;;;;;;5.50;5.50;;;;;12.07;72.62;99910.72;5098062;28;8822;-60
2023/05/06 00:36:35;;;;;;;;;4.50;2.50;;;;;12.02;73.15;99917.44;5097213;28;8834;-59
2023/05/06 00:39:02;;;;;;;;;10.25;8.50;;;;;12.00;73.06;99911.41;5098108;28;8826;-60
2023/05/06 00:41:30;;;;;;;;;7.00;7.00;;;;;11.96;72.83;99915.31;5097504;28;8826;-60
2023/05/06 00:43:58;;;;;;;;;7.00;6.25;;;;;11.93;72.96;99917.38;5097913;28;8919;-60
2023/05/06 00:46:26;;;;;;;;;4.00;3.00;;;;;11.90;72.95;99915.00;5098253;28;8834;-59
2023/05/06 00:48:53;;;;;;;;;1.00;0.25;;;;;11.86;73.41;99917.06;5098132;28;8902;-57
2023/05/06 00:51:21;;;;;;;;;10.00;7.00;;;;;11.81;73.53;99911.28;5097498;28;8848;-60
2023/05/06 00:53:49;;;;;;;;;7.25;7.25;;;;;11.76;73.07;99915.31;5098418;28;8841;-59
2023/05/06 00:56:17;;;;;;;;;6.50;6.00;;;;;11.71;73.79;99915.72;5097700;28;8834;-58
2023/05/06 00:58:47;;;;;;;;;7.50;7.00;;;;;11.64;73.81;99909.19;5097946;28;8842;-59
2023/05/06 01:01:16;;;;;;;;;8.50;8.00;;;;;11.58;73.53;99901.72;5097988;28;8934;-57
2023/05/06 01:03:43;;;;;;;;;9.00;7.00;;;;;11.53;74.09;99901.19;5098126;28;8935;-58
2023/05/06 01:06:11;;;;;;;;;8.00;8.00;;;;;11.47;73.70;99901.75;5098022;28;8834;-59
2023/05/06 01:08:39;;;;;;;;;3.00;3.00;;;;;11.41;74.00;99896.06;5098190;28;8807;-59
2023/05/06 01:11:07;;;;;;;;;9.75;7.50;;;;;11.35;73.67;99905.41;5098150;28;8861;-59
2023/05/06 01:13:35;;;;;;;;;6.75;6.00;;;;;11.30;74.00;99909.44;5098309;28;8826;-59
2023/05/06 01:16:03;;;;;;;;;6.75;6.50;;;;;11.25;74.31;99911.63;5097986;28;8822;-58
2023/05/06 01:18:31;;;;;;;;;6.75;4.00;;;;;11.19;74.52;99909.47;5097952;28;8834;-59
2023/05/06 01:20:59;;;;;;;;;6.25;6.25;;;;;11.13;74.47;99908.16;5097682;28;8825;-59
2023/05/06 01:23:26;;;;;;;;;7.00;6.75;;;;;11.08;74.61;99905.03;5098114;28;9480;-58
2023/05/06 01:25:54;;;;;;;;;8.00;6.50;;;;;11.03;74.34;99915.25;5097794;28;8830;-59
2023/05/06 01:28:22;;;;;;;;;6.00;5.00;;;;;10.99;74.32;99913.78;5097945;28;8828;-59
2023/05/06 01:30:49;;;;;;;;;1.00;1.00;;;;;10.95;74.52;99919.50;5097456;28;8834;-59
2023/05/06 01:33:17;;;;;;;;;7.50;7.00;;;;;10.92;74.81;99912.59;5097824;28;9495;-60
2023/05/06 01:35:45;;;;;;;;;4.00;3.25;;;;;10.92;74.81;99915.25;5098034;28;8826;-59
2023/05/06 01:38:13;;;;;;;;;3.25;2.00;;;;;10.94;74.42;99929.28;5097079;28;8818;-58
2023/05/06 01:40:40;;;;;;;;;6.75;6.75;;;;;10.97;74.59;99921.06;5097068;28;8906;-57
2023/05/06 01:43:08;;;;;;;;;4.75;4.25;;;;;10.98;74.55;99920.09;5096670;28;9496;-57
2023/05/06 01:45:36;;;;;;;;;6.00;5.50;;;;;10.99;74.20;99923.59;5096212;28;8810;-58
2023/05/06 01:48:04;;;;;;;;;9.50;8.00;;;;;11.01;74.48;99919.81;5095883;28;9551;-57
2023/05/06 01:50:32;;;;;;;;;4.00;4.00;;;;;11.02;74.08;99918.88;5096667;28;8850;-57
2023/05/06 01:52:59;;;;;;;;;10.00;8.00;;;;;11.01;74.07;99919.00;5096463;28;8948;-59
2023/05/06 01:55:27;;;;;;;;;4.00;4.00;;;;;11.00;74.30;99915.47;5096460;28;8829;-60
2023/05/06 01:57:56;;;;;;;;;9.00;7.50;;;;;10.99;74.20;99912.94;5096123;28;8825;-58
2023/05/06 02:00:25;;;;;;;;;6.00;5.50;;;;;10.98;73.85;99914.75;5096280;28;8853;-58
2023/05/06 02:02:52;;;;;;;;;7.00;6.00;;;;;10.97;74.19;99921.06;5095848;28;8830;-60
2023/05/06 02:05:20;;;;;;;;;3.75;3.75;;;;;10.94;74.26;99926.63;5096364;28;8818;-58
2023/05/06 02:07:48;;;;;;;;;4.50;3.25;;;;;10.93;74.01;99926.75;5095499;28;8924;-59
2023/05/06 02:10:15;;;;;;;;;6.00;5.00;;;;;10.91;74.05;99924.22;5096453;28;8907;-58
2023/05/06 02:12:43;;;;;;;;;6.00;4.50;;;;;10.86;74.09;99923.72;5096117;28;8830;-58
2023/05/06 02:15:11;;;;;;;;;4.00;4.00;;;;;10.80;74.12;99924.25;5096308;28;8837;-59
2023/05/06 02:17:39;;;;;;;;;3.00;3.00;;;;;10.74;74.24;99926.53;5096487;28;8822;-59
2023/05/06 02:20:08;;;;;;;;;3.00;3.00;;;;;10.67;74.34;99931.53;5096649;28;9091;-57
2023/05/06 02:22:36;;;;;;;;;3.00;3.00;;;;;10.63;74.39;99918.59;5096505;28;9521;-58
2023/05/06 02:25:04;;;;;;;;;4.00;4.00;;;;;10.59;74.57;99923.31;5096720;28;8907;-58
2023/05/06 02:27:31;;;;;;;;;3.00;3.00;;;;;10.56;74.84;99934.19;5096485;28;8833;-59
2023/05/06 02:29:59;;;;;;;;;5.50;4.00;;;;;10.52;74.79;99927.44;5096693;28;8826;-58
2023/05/06 02:32:26;;;;;;;;;4.00;4.00;;;;;10.50;75.15;99929.38;5096649;28;8861;-59
2023/05/06 02:34:54;;;;;;;;;6.25;6.00;;;;;10.49;74.78;99930.34;5096639;28;8834;-59
2023/05/06 02:37:22;;;;;;;;;5.00;5.00;;;;;10.46;74.60;99925.25;5096303;28;9606;-58
2023/05/06 02:39:50;;;;;;;;;5.00;4.50;;;;;10.46;74.56;99933.22;5096094;28;9596;-57
2023/05/06 02:42:18;;;;;;;;;4.00;4.00;;;;;10.46;74.54;99921.75;5096062;28;8822;-58
2023/05/06 02:44:45;;;;;;;;;1.00;1.00;;;;;10.45;74.68;99918.22;5096603;28;8926;-58
2023/05/06 02:47:13;;;;;;;;;6.00;6.00;;;;;10.44;74.67;99921.88;5096543;28;8841;-59
2023/05/06 02:49:41;;;;;;;;;9.00;7.00;;;;;10.41;74.68;99913.28;5096573;28;8821;-60
2023/05/06 02:52:09;;;;;;;;;6.50;6.50;;;;;10.37;74.44;99922.47;5096322;28;8837;-58
2023/05/06 02:54:36;;;;;;;;;4.50;4.00;;;;;10.32;74.39;99914.00;5096318;28;8818;-57
2023/05/06 02:57:04;;;;;;;;;1.50;1.50;;;;;10.24;74.88;99914.59;5095653;28;8830;-58
2023/05/06 02:59:31;;;;;;;;;6.00;6.00;;;;;10.19;74.95;99919.47;5095310;28;8846;-59
2023/05/06 03:01:59;;;;;;;;;5.50;5.50;;;;;10.21;75.16;99922.84;5095939;28;8861;-57
2023/05/06 03:04:27;;;;;;;;;5.00;5.00;;;;;10.18;75.18;99914.25;5095542;28;8821;-58
2023/05/06 03:06:55;;;;;;;;;4.00;4.00;;;;;10.16;75.22;99922.34;5095384;28;8880;-59
2023/05/06 03:09:22;;;;;;;;;5.00;3.25;;;;;10.15;75.18;99918.00;5094197;28;8826;-59
2023/05/06 03:11:50;;;;;;;;;3.75;3.75;;;;;10.13;75.14;99922.59;5094079;28;8860;-58
2023/05/06 03:14:18;;;;;;;;;3.00;3.00;;;;;10.10;75.14;99927.31;5094978;28;8830;-57
2023/05/06 03:16:46;;;;;;;;;8.50;6.25;;;;;10.06;75.02;99926.69;5094206;28;8830;-57
2023/05/06 03:19:14;;;;;;;;;6.00;4.00;;;;;10.02;75.20;99927.03;5097175;28;8830;-60
2023/05/06 03:21:41;;;;;;;;;6.00;6.00;;;;;9.97;75.26;99932.69;5098598;28;8822;-59
2023/05/06 03:24:09;;;;;;;;;3.00;1.50;;;;;9.92;75.42;99931.34;5098832;28;8944;-59
2023/05/06 03:26:37;;;;;;;;;3.00;3.00;;;;;9.87;75.14;99933.53;5099105;28;9507;-58
2023/05/06 03:29:05;;;;;;;;;3.50;3.00;;;;;9.82;75.40;99930.38;5099469;28;8814;-56
2023/05/06 03:31:32;;;;;;;;;4.00;4.00;;;;;9.78;75.50;99923.59;5098674;28;8846;-59
2023/05/06 03:34:00;;;;;;;;;5.50;5.00;;;;;9.75;75.38;99929.13;5099419;28;8842;-59
2023/05/06 03:36:28;;;;;;;;;3.00;2.00;;;;;9.69;75.43;99933.13;5099717;28;8833;-58
2023/05/06 03:38:56;;;;;;;;;6.00;4.50;;;;;9.62;75.24;99929.22;5099738;28;9515;-59
2023/05/06 03:41:23;;;;;;;;;4.00;4.00;;;;;9.56;75.62;99926.19;5099527;28;8849;-57
2023/05/06 03:43:51;;;;;;;;;4.50;4.00;;;;;9.52;75.75;99938.00;5099875;28;8833;-59
2023/05/06 03:46:19;;;;;;;;;0.50;0.50;;;;;9.48;75.83;99939.22;5099772;28;8814;-59
2023/05/06 03:48:47;;;;;;;;;4.00;4.00;;;;;9.44;75.79;99932.41;5100152;28;9527;-58
2023/05/06 03:51:15;;;;;;;;;3.00;3.00;;;;;9.38;75.95;99947.03;5099474;28;8845;-59
2023/05/06 03:53:43;;;;;;;;;1.50;1.50;;;;;9.34;75.52;99944.72;5099809;28;8841;-59
2023/05/06 03:56:11;;;;;;;;;3.75;3.75;;;;;9.29;75.77;99942.41;5099611;28;8818;-57
2023/05/06 03:58:38;;;;;;;;;4.00;3.00;;;;;9.27;76.14;99941.66;5099154;28;9523;-59
2023/05/06 04:01:06;;;;;;;;;3.00;2.50;;;;;9.23;76.12;99942.00;5099109;28;8877;-59
2023/05/06 04:03:34;;;;;;;;;3.00;3.00;;;;;9.19;76.05;99945.84;5099327;28;8872;-59
2023/05/06 04:06:01;;;;;;;;;4.00;4.00;;;;;9.14;76.13;99946.19;5099238;28;8813;-59
2023/05/06 04:08:29;;;;;;;;;7.00;4.00;;;;;9.12;76.07;99944.59;5099383;28;8850;-58
2023/05/06 04:10:57;;;;;;;;;3.00;3.00;;;;;9.09;76.14;99950.13;5099118;28;8813;-59
2023/05/06 04:13:25;;;;;;;;;4.00;3.00;;;;;9.05;76.30;99944.19;5099408;28;8830;-59
2023/05/06 04:15:53;;;;;;;;;1.00;1.00;;;;;9.04;76.67;99946.97;5099467;28;8845;-60
2023/05/06 04:18:21;;;;;;;;;5.25;3.50;;;;;9.02;76.14;99955.06;5098779;28;8872;-59
2023/05/06 04:20:49;;;;;;;;;3.75;3.75;;;;;8.99;76.28;99947.31;5098881;28;8842;-60
2023/05/06 04:23:16;;;;;;;;;4.00;4.00;;;;;9.00;76.09;99954.31;5098883;28;8895;-59
2023/05/06 04:25:47;;;;;;;;;1.50;1.00;;;;;9.02;75.81;99951.53;5098944;28;8814;-59
2023/05/06 04:28:15;;;;;;;;;3.00;3.00;;;;;9.04;75.94;99946.97;5098325;28;8980;-58
2023/05/06 04:30:43;;;;;;;;;3.50;3.00;;;;;9.07;76.27;99952.06;5096994;28;8835;-57
2023/05/06 04:33:11;;;;;;;;;2.25;2.00;;;;;9.09;75.71;99953.66;5097325;28;8837;-59
2023/05/06 04:35:38;;;;;;;;;3.50;3.00;;;;;9.06;75.91;99945.91;5097781;28;8826;-59
2023/05/06 04:38:06;;;;;;;;;2.00;2.00;;;;;9.08;75.27;99957.25;5097426;28;9585;-59
2023/05/06 04:40:35;;;;;;;;;2.50;2.00;;;;;9.08;75.66;99948.44;5097115;28;8866;-57
2023/05/06 04:43:03;;;;;;;;;3.75;3.75;;;;;9.11;75.59;99958.84;5097434;28;8810;-59
2023/05/06 04:45:31;;;;;;;;;3.50;3.25;;;;;9.15;75.57;99953.19;5097551;28;8817;-59
2023/05/06 04:47:59;;;;;;;;;3.50;3.25;;;;;9.22;75.66;99950.94;5097881;28;8841;-59
2023/05/06 04:50:26;;;;;;;;;5.50;5.50;;;;;9.28;75.29;99943.34;5097935;28;8838;-57
2023/05/06 04:52:54;;;;;;;;;6.00;5.60;;;;;9.32;75.03;99944.81;5097764;28;8837;-56
2023/05/06 04:55:22;;;;;;;;;6.00;5.50;;;;;9.35;75.12;99949.88;5097445;28;8906;-59
2023/05/06 04:57:50;;;;;;;;;13.20;11.60;;;;;9.40;75.04;99955.72;5097773;28;8918;-57
2023/05/06 05:00:18;;;;;;;;;17.80;15.40;;;;;9.43;74.97;99960.78;5097551;28;8856;-58
2023/05/06 05:02:46;;;;;;;;;7.50;7.00;;;;;9.47;74.85;99961.41;5097733;28;9551;-59
2023/05/06 05:05:14;;;;;;;;;9.00;7.00;;;;;9.49;74.73;99968.31;5097990;28;8838;-59
2023/05/06 05:07:41;;;;;;;;;7.00;7.00;;;;;9.56;74.61;99964.25;5096901;28;8817;-58
2023/05/06 05:10:09;;;;;;;;;4.00;3.25;;;;;9.63;74.60;99960.16;5096431;28;8914;-58
2023/05/06 05:12:37;;;;;;;;;4.00;3.50;;;;;9.71;73.79;99968.41;5097095;28;8994;-58
2023/05/06 05:15:04;;;;;;;;;1.00;1.00;;;;;9.82;73.70;99967.59;5096071;28;8834;-56
2023/05/06 05:17:33;;;;;;;;;6.50;6.25;;;;;9.91;73.84;99977.53;5096084;28;8822;-56
2023/05/06 05:20:00;;;;;;;;;10.00;7.00;;;;;10.00;73.77;99972.34;5096072;28;8829;-59
2023/05/06 05:22:28;;;;;;;;;9.25;8.00;;;;;10.11;73.34;99969.72;5096671;28;8822;-57
2023/05/06 05:24:56;;;;;;;;;8.00;8.00;;;;;10.22;73.09;99971.56;5095759;28;8876;-60
2023/05/06 05:27:23;;;;;;;;;7.00;7.00;;;;;10.33;73.13;99977.75;5095870;28;8915;-58
2023/05/06 05:29:51;;;;;;;;;5.00;4.00;;;;;10.46;72.74;99970.50;5097166;28;8848;-58
2023/05/06 05:32:20;;;;;;;;;11.00;10.00;;;;;10.68;72.49;99977.63;5097510;28;8857;-59
2023/05/06 05:34:48;;;;;;;;;10.00;7.50;;;;;10.84;71.73;99981.63;5096601;28;8864;-57
2023/05/06 05:37:15;;;;;;;;;11.00;8.50;;;;;11.01;71.81;99981.09;5096730;28;8810;-57
2023/05/06 05:39:45;;;;;;;;;9.75;9.75;;;;;11.17;71.71;99978.06;5095869;28;8822;-57
2023/05/06 05:42:13;;;;;;;;;9.00;9.00;;;;;11.30;71.31;99984.91;5096277;28;8822;-60
2023/05/06 05:44:40;;;;;;;;;6.75;6.25;;;;;11.42;71.15;99972.41;5098196;28;9718;-58
2023/05/06 05:47:08;;;;;;;;;7.00;6.50;;;;;11.54;71.36;99985.56;5097129;28;8841;-57
2023/05/06 05:49:35;;;;;;;;;9.75;9.25;;;;;11.66;70.63;99981.06;5097260;28;8821;-59
2023/05/06 05:52:03;;;;;;;;;7.00;6.25;;;;;11.77;70.62;99976.56;5096583;28;8845;-58
2023/05/06 05:54:31;;;;;;;;;8.75;6.50;;;;;11.89;70.33;99983.50;5096884;28;8842;-57
2023/05/06 05:56:59;;;;;;;;;9.25;7.00;;;;;11.99;70.48;99981.75;5096854;28;8849;-57
2023/05/06 05:59:26;;;;;;;;;9.00;7.00;;;;;12.09;70.55;99977.34;5096144;28;8833;-58
2023/05/06 06:01:54;;;;;;;;;8.00;6.75;;;;;12.17;70.01;99982.88;5096476;28;8830;-58
2023/05/06 06:04:22;;;;;;;;;9.25;7.00;;;;;12.26;70.51;99982.06;5096785;28;8828;-59
2023/05/06 06:06:50;;;;;;;;;4.00;3.75;;;;;12.32;70.04;99987.72;5096654;28;8818;-57
2023/05/06 06:09:17;;;;;;;;;8.00;6.50;;;;;12.44;69.51;99983.16;5096600;28;8863;-59
2023/05/06 06:11:45;;;;;;;;;9.25;7.50;;;;;12.58;69.51;99985.47;5096634;28;8822;-58
2023/05/06 06:14:12;;;;;;;;;7.00;6.00;;;;;12.66;69.98;99985.66;5094169;28;8910;-57
2023/05/06 06:16:40;;;;;;;;;8.00;8.00;;;;;12.75;69.64;99984.88;5094943;28;8841;-59
2023/05/06 06:19:08;;;;;;;;;6.00;5.00;;;;;12.82;69.40;99988.66;5094834;28;8834;-57
2023/05/06 06:21:36;;;;;;;;;8.50;7.50;;;;;12.91;69.61;99996.72;5095128;28;9892;-59
2023/05/06 06:24:04;;;;;;;;;7.50;6.75;;;;;13.02;69.63;99987.78;5095355;28;8830;-59
2023/05/06 06:26:32;;;;;;;;;5.00;3.50;;;;;13.12;69.15;99989.50;5095168;28;8834;-57
2023/05/06 06:28:59;;;;;;;;;10.00;9.25;;;;;13.23;69.32;99993.91;5095442;28;8830;-60
2023/05/06 06:31:28;;;;;;;;;6.50;6.00;;;;;13.32;68.92;99996.59;5095662;28;9579;-57
2023/05/06 06:33:55;;;;;;;;;2.00;2.00;;;;;13.44;68.71;99990.13;5096047;28;8856;-60
2023/05/06 06:36:23;;;;;;;;;6.50;6.50;;;;;13.52;68.72;99989.44;5095949;28;9534;-57
2023/05/06 06:38:51;;;;;;;;;8.50;8.00;;;;;13.63;68.61;99991.97;5095911;28;8826;-57
2023/05/06 06:41:19;;;;;;;;;3.50;3.00;;;;;13.72;68.91;99993.81;5095266;28;8852;-58
2023/05/06 06:43:47;;;;;;;;;7.50;6.00;;;;;13.83;68.86;99988.31;5096144;28;8830;-57
2023/05/06 06:46:15;;;;;;;;;4.00;3.00;;;;;13.91;68.81;99997.34;5095046;28;8842;-58
2023/05/06 06:48:43;;;;;;;;;9.00;7.50;;;;;13.98;68.42;99989.59;5093985;28;8818;-59
2023/05/06 06:51:11;;;;;;;;;12.00;12.00;;;;;14.08;67.86;99995.75;5094829;28;8826;-58
2023/05/06 06:53:39;;;;;;;;;9.00;9.00;;;;;14.18;68.14;99986.78;5093971;28;8866;-59
2023/05/06 06:56:07;;;;;;;;;14.00;13.75;;;;;14.28;68.25;99982.22;5094670;28;8826;-60
2023/05/06 06:58:34;;;;;;;;;9.75;9.50;;;;;14.40;68.18;99985.59;5095100;28;8952;-60
2023/05/06 07:01:02;;;;;;;;;12.75;9.25;;;;;14.53;67.86;99980.75;5094542;28;8846;-59
2023/05/06 07:03:31;;;;;;;;;11.00;11.00;;;;;14.65;67.63;99979.59;5095291;28;8810;-60
2023/05/06 07:06:01;;;;;;;;;9.50;8.75;;;;;14.78;67.09;99982.78;5095184;28;8826;-58
2023/05/06 07:08:29;;;;;;;;;10.00;8.00;;;;;14.91;67.50;99973.41;5095651;28;8836;-59
2023/05/06 07:10:56;;;;;;;;;9.00;8.50;;;;;15.04;66.74;99979.28;5095450;28;8818;-59
2023/05/06 07:13:24;;;;;;;;;5.00;3.25;;;;;15.15;67.01;99980.91;5094575;28;8846;-58
2023/05/06 07:15:52;;;;;;;;;9.25;8.00;;;;;15.25;66.78;99971.78;5094838;28;8861;-60
2023/05/06 07:18:19;;;;;;;;;7.50;6.25;;;;;15.40;66.50;99974.84;5093701;28;8864;-59
2023/05/06 07:20:47;;;;;;;;;9.00;7.00;;;;;15.52;66.39;99977.16;5094153;28;8906;-58
2023/05/06 07:23:15;;;;;;;;;10.25;9.00;;;;;15.66;66.60;99973.09;5094469;28;8865;-58
2023/05/06 07:25:43;;;;;;;;;10.00;9.25;;;;;15.78;65.62;99977.25;5093944;28;8848;-58
2023/05/06 07:28:11;;;;;;;;;4.50;4.50;;;;;15.86;66.29;99972.78;5094005;28;8976;-58
2023/05/06 07:30:39;;;;;;;;;6.75;6.75;;;;;15.97;65.93;99979.75;5093914;28;8837;-58
2023/05/06 07:33:07;;;;;;;;;10.00;9.00;;;;;16.07;66.18;99983.22;5095080;28;8833;-58
2023/05/06 07:35:34;;;;;;;;;10.00;9.00;;;;;16.18;65.68;99978.44;5093463;28;9540;-59
2023/05/06 07:38:02;;;;;;;;;9.25;8.00;;;;;16.31;65.86;99978.84;5094465;28;8846;-57
2023/05/06 07:40:30;;;;;;;;;10.00;9.25;;;;;16.39;65.67;99977.09;5094395;28;8915;-60
2023/05/06 07:42:58;;;;;;;;;9.50;8.50;;;;;16.51;65.46;99977.69;5094919;28;8895;-58
2023/05/06 07:45:26;;;;;;;;;10.00;9.00;;;;;16.60;65.12;99974.88;5095566;28;8814;-59
2023/05/06 07:47:54;;;;;;;;;11.75;10.00;;;;;16.70;65.39;99981.00;5094612;28;8956;-59
2023/05/06 07:50:22;;;;;;;;;9.00;8.00;;;;;16.81;65.47;99980.72;5094888;28;8818;-58
2023/05/06 07:52:50;;;;;;;;;9.25;9.00;;;;;16.93;65.33;99987.50;5094904;28;8822;-60
2023/05/06 07:55:18;;;;;;;;;11.75;9.25;;;;;17.06;65.32;99987.91;5094048;28;8838;-59
2023/05/06 07:57:46;;;;;;;;;13.00;12.00;;;;;17.10;64.97;99983.84;5094098;28;8838;-57
2023/05/06 08:00:14;;;;;;;;;9.00;7.25;;;;;17.15;65.04;99989.59;5091744;28;8852;-58
2023/05/06 08:02:43;;;;;;;;;15.75;13.00;;;;;17.25;65.14;99990.31;5092781;28;8830;-60
2023/05/06 08:05:11;;;;;;;;;8.25;7.50;;;;;17.36;64.65;99987.38;5093236;28;8826;-59
2023/05/06 08:07:39;;;;;;;;;11.00;9.75;;;;;17.48;64.29;99990.59;5095934;28;8850;-58
2023/05/06 08:10:07;;;;;;;;;7.00;6.50;;;;;17.57;64.49;99989.59;5096385;28;8845;-59
2023/05/06 08:12:36;;;;;;;;;10.40;9.20;;;;;17.69;64.31;99989.13;5097036;28;8837;-58
2023/05/06 08:15:04;;;;;;;;;9.60;8.80;;;;;17.79;64.48;99984.44;5096799;28;8926;-59
2023/05/06 08:17:32;;;;;;;;;14.00;12.00;;;;;17.90;63.58;99984.09;5097221;28;8830;-59
2023/05/06 08:20:00;;;;;;;;;12.50;12.00;;;;;18.03;63.78;99986.28;5096521;28;8976;-58
2023/05/06 08:22:28;;;;;;;;;8.00;7.00;;;;;18.13;63.66;99979.72;5096063;28;8842;-58
2023/05/06 08:24:56;;;;;;;;;12.25;12.25;;;;;18.24;63.43;99989.31;5094759;28;8830;-59
2023/05/06 08:27:24;;;;;;;;;10.50;8.00;;;;;18.31;64.07;99991.22;5096308;28;8838;-59
2023/05/06 08:29:52;;;;;;;;;11.60;10.00;;;;;18.41;63.77;99991.88;5096171;28;8911;-61
2023/05/06 08:32:20;;;;;;;;;10.00;8.60;;;;;18.53;63.16;99985.09;5096510;28;8985;-58
2023/05/06 08:34:48;;;;;;;;;9.60;9.20;;;;;18.59;63.42;99991.69;5096473;28;8910;-61
2023/05/06 08:37:16;;;;;;;;;9.00;9.00;;;;;18.63;63.14;99987.59;5097321;28;9626;-61
2023/05/06 08:39:44;;;;;;;;;10.00;10.00;;;;;18.70;63.21;99994.84;5096436;28;8834;-61
2023/05/06 08:42:12;;;;;;;;;9.20;8.40;;;;;18.81;63.21;99989.09;5096372;28;8983;-59
2023/05/06 08:44:39;;;;;;;;;3.20;3.20;;;;;18.93;63.03;99982.31;5097775;28;8826;-59
2023/05/06 08:47:07;;;;;;;;;13.40;12.00;;;;;19.05;62.52;99991.69;5097003;28;8830;-60
2023/05/06 08:49:35;;;;;;;;;11.60;7.80;;;;;19.16;62.38;99977.81;5096377;28;8832;-58
2023/05/06 08:52:03;;;;;;;;;10.00;9.60;;;;;19.29;62.14;99982.69;5096405;28;8959;-58
2023/05/06 08:54:31;;;;;;;;;6.80;6.80;;;;;19.37;61.79;99986.22;5096701;28;8857;-58
2023/05/06 08:57:01;;;;;;;;;11.40;10.20;;;;;19.34;62.08;99980.31;5097095;28;8830;-59
2023/05/06 08:59:31;;;;;;;;;10.20;10.00;;;;;19.40;62.09;99991.25;5096285;28;9627;-58
2023/05/06 09:01:59;;;;;;;;;8.80;7.80;;;;;19.52;62.44;99978.19;5095275;28;8853;-58
2023/05/06 09:04:27;;;;;;;;;9.80;9.40;;;;;19.67;61.51;99988.06;5095368;28;8834;-59
2023/05/06 09:06:56;;;;;;;;;11.60;10.40;;;;;19.80;61.85;99980.19;5095738;28;8853;-59
2023/05/06 09:09:24;;;;;;;;;9.80;9.80;;;;;19.95;61.44;99991.06;5095639;28;8891;-59
2023/05/06 09:11:54;;;;;;;;;3.80;2.40;;;;;20.03;61.17;99977.50;5096084;28;8854;-60
2023/05/06 09:14:21;;;;;;;;;8.40;8.00;;;;;20.00;60.95;99977.81;5096097;28;8969;-59
2023/05/06 09:16:49;;;;;;;;;7.20;5.40;;;;;20.11;61.11;99980.16;5096328;28;8952;-61
2023/05/06 09:19:17;;;;;;;;;8.80;8.00;;;;;20.29;60.61;99978.81;5096662;28;8837;-61
2023/05/06 09:21:45;;;;;;;;;9.20;8.80;;;;;20.50;60.33;99975.41;5096017;28;8842;-59
2023/05/06 09:24:14;;;;;;;;;10.60;9.60;;;;;20.48;60.62;99975.56;5095923;28;8838;-59
2023/05/06 09:26:41;;;;;;;;;10.40;8.80;;;;;20.36;60.63;99973.50;5095888;28;8834;-61
2023/05/06 09:29:09;;;;;;;;;8.60;7.80;;;;;20.26;60.88;99972.94;5094600;28;8830;-59
2023/05/06 09:31:37;;;;;;;;;5.80;5.80;;;;;20.30;60.60;99974.22;5094961;28;8881;-58
2023/05/06 09:34:06;;;;;;;;;7.00;7.00;;;;;20.32;60.66;99970.31;5094941;28;8852;-59
2023/05/06 09:36:34;;;;;;;;;6.60;5.40;;;;;20.41;60.86;99969.22;5095529;28;8849;-60
2023/05/06 09:39:01;;;;;;;;;8.80;8.80;;;;;20.75;60.26;99961.44;5095590;28;8842;-59
2023/05/06 09:41:30;;;;;;;;;9.20;7.60;;;;;21.23;58.78;99963.56;5095381;28;8836;-59
2023/05/06 09:43:58;;;;;;;;;7.60;7.40;;;;;21.68;57.86;99957.88;5096017;28;8853;-59
2023/05/06 09:46:25;;;;;;;;;7.40;7.40;;;;;21.88;58.13;99964.34;5096486;28;9596;-61
2023/05/06 09:48:54;;;;;;;;;8.00;7.40;;;;;21.64;58.16;99960.09;5097222;28;8818;-59
2023/05/06 09:51:21;;;;;;;;;8.60;8.60;;;;;21.27;59.16;99964.88;5096849;28;8907;-59
2023/05/06 09:53:50;;;;;;;;;7.40;6.00;;;;;20.92;59.95;99956.72;5095156;28;8972;-59
2023/05/06 09:56:17;;;;;;;;;3.80;2.40;;;;;20.70;60.70;99955.72;5094958;28;8877;-59
2023/05/06 09:58:46;;;;;;;;;8.20;8.20;;;;;20.56;60.93;99959.25;5095224;28;9523;-59
2023/05/06 10:01:14;;;;;;;;;10.60;9.20;;;;;20.46;61.24;99961.41;5095472;28;8856;-60
2023/05/06 10:03:55;;;;;;;;;10.00;9.40;;;;;20.62;60.95;99958.50;5095672;28;8845;-59
2023/05/06 10:06:24;;;;;;;;;12.40;10.60;;;;;20.60;60.81;99959.72;5095167;28;8960;-59
2023/05/06 10:08:52;;;;;;;;;8.00;7.00;;;;;20.44;60.96;99955.34;5095610;28;8826;-59
2023/05/06 10:11:20;;;;;;;;;8.40;8.00;;;;;20.24;61.38;99956.88;5095005;28;9605;-59
2023/05/06 10:13:48;;;;;;;;;8.20;8.00;;;;;20.05;62.13;99960.09;5094646;28;8974;-59
2023/05/06 10:16:16;;;;;;;;;13.40;11.00;;;;;19.90;62.50;99956.47;5094120;28;8846;-59
2023/05/06 10:18:44;;;;;;;;;8.80;8.00;;;;;19.73;62.69;99949.47;5094664;28;8912;-58
2023/05/06 10:21:12;;;;;;;;;10.00;8.00;;;;;19.59;62.80;99952.97;5095254;28;8822;-58
2023/05/06 10:23:41;;;;;;;;;9.60;8.00;;;;;19.52;63.38;99954.72;5095138;28;8985;-59
2023/05/06 10:26:08;;;;;;;;;11.00;8.00;;;;;19.51;62.95;99949.47;5094625;28;8848;-59
2023/05/06 10:28:36;;;;;;;;;8.60;7.60;;;;;19.52;63.03;99946.59;5094559;28;8853;-59
2023/05/06 10:31:04;;;;;;;;;10.40;8.00;;;;;19.51;62.70;99949.47;5094645;28;8902;-59
2023/05/06 10:33:32;;;;;;;;;9.60;7.80;;;;;19.52;62.80;99940.34;5094877;28;8826;-58
2023/05/06 10:36:00;;;;;;;;;9.20;8.00;;;;;19.60;62.60;99943.84;5094783;28;8964;-58
2023/05/06 10:38:28;;;;;;;;;7.00;7.00;;;;;20.23;61.62;99938.97;5094974;28;8814;-58
2023/05/06 10:40:56;;;;;;;;;10.20;10.00;;;;;20.65;60.85;99925.69;5093156;28;8864;-58
2023/05/06 10:43:24;;;;;;;;;8.20;7.80;;;;;21.18;59.10;99926.22;5093624;28;8878;-58
2023/05/06 10:45:53;;;;;;;;;8.00;8.00;;;;;21.49;58.92;99928.66;5093575;28;8825;-59
2023/05/06 10:48:21;;;;;;;;;8.60;8.00;;;;;21.36;58.72;99926.66;5094148;28;8833;-59
2023/05/06 10:50:50;;;;;;;;;10.00;9.20;;;;;21.18;59.34;99922.69;5094491;28;8844;-60
2023/05/06 10:53:17;;;;;;;;;5.00;5.00;;;;;21.53;58.86;99924.53;5094223;28;8988;-59
2023/05/06 10:55:45;;;;;;;;;8.40;8.00;;;;;22.16;57.59;99919.13;5094443;28;8930;-59
2023/05/06 10:58:13;;;;;;;;;10.40;9.00;;;;;23.22;56.02;99912.31;5094895;28;8873;-59
2023/05/06 11:00:41;;;;;;;;;8.00;8.00;;;;;24.30;53.27;99908.31;5093985;28;8838;-59
2023/05/06 11:03:09;;;;;;;;;8.00;8.00;;;;;25.30;51.78;99906.84;5094403;28;8849;-59
2023/05/06 11:05:37;;;;;;;;;8.20;6.80;;;;;26.13;50.24;99902.78;5093991;28;8822;-59
2023/05/06 11:08:05;;;;;;;;;9.20;9.00;;;;;26.78;49.15;99898.63;5093205;28;8833;-59
2023/05/06 11:10:33;;;;;;;;;9.60;8.00;;;;;27.37;48.25;99899.59;5093847;28;8841;-59
2023/05/06 11:13:02;;;;;;;;;7.40;7.40;;;;;27.68;47.76;99904.00;5093876;28;8911;-60
2023/05/06 11:15:30;;;;;;;;;7.00;7.00;;;;;28.17;47.59;99900.94;5093742;28;8860;-59
2023/05/06 11:17:58;;;;;;;;;6.20;6.00;;;;;28.75;46.49;99901.81;5093955;28;8838;-59
2023/05/06 11:20:26;;;;;;;;;6.80;6.20;;;;;29.29;45.71;99902.19;5093625;28;8879;-60
2023/05/06 11:22:54;;;;;;;;;7.80;6.80;;;;;29.79;44.20;99891.44;5094366;28;8850;-60
2023/05/06 13:21:46;;;;;;;;;4.00;4.00;;;;;28.93;44.06;99852.31;5111872;28;9494;-60
2023/05/06 13:24:15;;;;;;;;;2.00;2.00;;;;;28.79;44.65;99851.75;5106676;28;8836;-59
2023/05/06 13:26:42;;;;;;;;;3.80;3.80;;;;;28.65;44.55;99860.44;5113365;28;8828;-60
2023/05/06 13:29:10;;;;;;;;;4.80;4.80;;;;;28.53;44.84;99854.97;5117692;28;8846;-60
2023/05/06 13:31:39;;;;;;;;;4.60;4.00;;;;;28.39;45.45;99845.34;5117358;28;8867;-60
2023/05/06 13:34:06;;;;;;;;;3.00;3.00;;;;;28.19;45.33;99844.00;5117719;28;8816;-60
2023/05/06 13:36:35;;;;;;;;;5.40;4.80;;;;;27.87;46.03;99846.25;5117535;28;9501;-60
2023/05/06 13:39:03;;;;;;;;;3.40;3.40;;;;;27.53;46.05;99846.94;5117716;28;8912;-60
2023/05/06 13:41:31;;;;;;;;;3.00;3.00;;;;;27.31;46.90;99843.06;5116912;28;8912;-60